Time;durP1;ratioP1;P1;durP2;ratioP2;P2;SDS_P1;SDS_P2;PMS_P1;PMS_P2;Temp;Humidity;BMP_temperature;BMP_pressure;BME280_temperature;BME280_humidity;BME280_pressure;Samples;Min_cycle;Max_cycle;Signal;HPM_P1;HPM_P2
2022/09/21 00:05:34;;;;;;;25.88;15.30;;;;;;;9.43;100.00;99358.27;4012648;87;21048;-82
2022/09/21 00:11:36;;;;;;;25.95;15.10;;;;;;;9.42;100.00;99370.36;3870278;90;21073;-82
2022/09/21 00:17:38;;;;;;;20.68;14.05;;;;;;;9.41;100.00;99363.89;3866936;90;21093;-82
2022/09/21 00:23:40;;;;;;;30.80;14.05;;;;;;;9.38;100.00;99359.91;3871678;90;21035;-83
2022/09/21 00:29:41;;;;;;;23.52;12.30;;;;;;;9.37;100.00;99365.73;3843861;91;21071;-82
2022/09/21 00:35:43;;;;;;;18.70;12.95;;;;;;;9.36;100.00;99365.53;3841069;90;21087;-83
2022/09/21 00:41:44;;;;;;;19.77;13.43;;;;;;;9.31;100.00;99368.53;3843440;91;21194;-83
2022/09/21 00:47:50;;;;;;;21.07;14.38;;;;;;;9.28;100.00;99371.98;3867081;90;21174;-82
2022/09/21 00:53:56;;;;;;;28.70;14.00;;;;;;;9.20;100.00;99371.04;3854208;91;21114;-83
2022/09/21 01:00:02;;;;;;;24.37;14.30;;;;;;;9.15;100.00;99376.77;3846533;91;21071;-82
2022/09/21 01:06:05;;;;;;;21.77;15.23;;;;;;;9.11;100.00;99381.34;3849796;91;21096;-83
2022/09/21 01:12:26;;;;;;;23.52;15.28;;;;;;;9.11;100.00;99383.31;3837167;91;21058;-83
2022/09/21 01:18:39;;;;;;;24.23;15.93;;;;;;;9.09;100.00;99382.30;3834351;91;21108;-82
2022/09/21 01:24:57;;;;;;;25.65;16.70;;;;;;;9.06;100.00;99387.11;3929068;89;21050;-83
2022/09/21 01:31:04;;;;;;;28.25;15.98;;;;;;;9.05;100.00;99388.23;3927478;89;21014;-83
2022/09/21 01:37:14;;;;;;;29.25;17.40;;;;;;;9.10;100.00;99389.89;3928152;89;21019;-84
2022/09/21 01:43:22;;;;;;;27.45;17.45;;;;;;;9.12;100.00;99393.07;3930082;89;21059;-83
2022/09/21 01:49:34;;;;;;;28.00;17.57;;;;;;;9.17;100.00;99394.97;3928352;89;21076;-83
2022/09/21 01:55:55;;;;;;;25.05;16.67;;;;;;;9.19;100.00;99392.66;3928836;89;20991;-83
2022/09/21 02:02:02;;;;;;;30.10;17.20;;;;;;;9.23;100.00;99386.72;3931515;89;20999;-82
2022/09/21 02:08:05;;;;;;;;;;;;;;;9.24;100.00;99391.58;3934303;89;21065;-83
2022/09/21 02:14:09;;;;;;;28.35;17.87;;;;;;;9.28;100.00;99391.11;3937094;89;20206;-83
2022/09/21 02:20:25;;;;;;;25.70;17.75;;;;;;;9.28;100.00;99394.64;3929045;89;21058;-84
2022/09/21 02:26:32;;;;;;;26.55;17.15;;;;;;;9.31;100.00;99395.29;3930636;89;21077;-83
2022/09/21 02:32:57;;;;;;;30.77;18.57;;;;;;;9.36;100.00;99394.98;3926835;88;21161;-82
2022/09/21 02:39:15;;;;;;;26.50;17.42;;;;;;;9.38;100.00;99396.80;3930260;89;21997;-83
2022/09/21 02:45:24;;;;;;;24.25;16.87;;;;;;;9.40;100.00;99397.80;3928101;89;21042;-82
2022/09/21 02:51:33;;;;;;;28.87;18.55;;;;;;;9.42;100.00;99394.15;3932406;89;21030;-83
2022/09/21 02:57:36;;;;;;;30.08;19.07;;;;;;;9.44;100.00;99406.30;3927112;89;21074;-82
2022/09/21 03:03:37;;;;;;;26.27;18.52;;;;;;;9.46;100.00;99401.27;3929523;89;21891;-82
2022/09/21 03:09:38;;;;;;;28.23;19.45;;;;;;;9.45;100.00;99412.56;3935479;88;21030;-84
2022/09/21 03:15:40;;;;;;;26.77;18.85;;;;;;;9.43;100.00;99416.22;3980945;88;21085;-83
2022/09/21 03:21:42;;;;;;;32.30;21.25;;;;;;;9.44;100.00;99417.82;4002946;87;21161;-83
2022/09/21 03:27:43;;;;;;;26.50;19.07;;;;;;;9.45;100.00;99427.03;4004762;87;21142;-83
2022/09/21 03:33:45;;;;;;;27.60;20.37;;;;;;;9.46;100.00;99427.23;3963065;88;21094;-82
2022/09/21 03:39:47;;;;;;;28.60;19.27;;;;;;;9.49;100.00;99431.19;4003672;87;21091;-83
2022/09/21 03:45:48;;;;;;;26.05;19.60;;;;;;;9.47;100.00;99434.27;3956142;88;21137;-82
2022/09/21 03:51:49;;;;;;;30.68;18.85;;;;;;;9.48;100.00;99441.34;3958544;88;21114;-83
2022/09/21 03:57:51;;;;;;;29.18;20.32;;;;;;;9.47;100.00;99445.80;3959058;87;21010;-83
2022/09/21 04:03:52;;;;;;;28.12;19.95;;;;;;;9.47;100.00;99452.63;3953628;88;21156;-82
2022/09/21 04:09:54;;;;;;;30.32;21.25;;;;;;;9.48;100.00;99460.47;3959936;87;21689;-83
2022/09/21 04:15:55;;;;;;;30.08;20.17;;;;;;;9.49;100.00;99463.98;3978731;88;21637;-82
2022/09/21 04:21:57;;;;;;;29.90;19.02;;;;;;;9.48;100.00;99463.20;3975583;88;21622;-81
2022/09/21 04:27:58;;;;;;;30.97;20.40;;;;;;;9.47;100.00;99470.39;3974910;88;21053;-83
2022/09/21 04:34:01;;;;;;;35.80;21.52;;;;;;;9.46;100.00;99472.89;3957490;88;21185;-82
2022/09/21 04:40:03;;;;;;;31.17;21.52;;;;;;;9.48;100.00;99469.23;3951265;87;21130;-83
2022/09/21 04:46:11;;;;;;;32.35;20.68;;;;;;;9.45;100.00;99483.05;3957135;88;21035;-82
2022/09/21 04:52:12;;;;;;;32.30;20.68;;;;;;;9.45;100.00;99483.61;3963985;88;21022;-82
2022/09/21 04:58:13;;;;;;;28.95;19.85;;;;;;;9.47;100.00;99485.42;3958318;88;21093;-82
2022/09/21 05:04:15;;;;;;;27.22;19.23;;;;;;;9.47;100.00;99480.73;3955263;88;21727;-82
2022/09/21 05:10:16;;;;;;;27.67;19.67;;;;;;;9.49;100.00;99483.11;4001591;86;21027;-82
2022/09/21 05:16:18;;;;;;;33.10;22.55;;;;;;;9.48;100.00;99483.70;3984824;88;21515;-82
2022/09/21 05:38:16;;;;;;;30.70;23.57;;;;;;;9.89;100.00;99485.00;4555691;76;23122;-84
2022/09/21 05:44:20;;;;;;;28.47;21.55;;;;;;;9.81;100.00;99497.49;4389065;79;21473;-84
2022/09/21 05:50:34;;;;;;;22.95;18.05;;;;;;;9.77;100.00;99499.38;4363486;79;21951;-83
2022/09/21 05:57:14;;;;;;;23.02;17.12;;;;;;;9.70;100.00;99505.47;4366083;79;21007;-83
2022/09/21 06:03:28;;;;;;;26.02;18.82;;;;;;;9.64;100.00;99511.00;4380246;79;20971;-84
2022/09/21 06:09:29;;;;;;;27.98;17.37;;;;;;;9.63;100.00;99514.09;4396086;79;21054;-84
2022/09/21 06:15:33;;;;;;;23.52;17.90;;;;;;;9.61;100.00;99516.38;4392170;79;21085;-84
2022/09/21 06:21:34;;;;;;;27.82;20.00;;;;;;;9.58;100.00;99520.63;4369858;79;21018;-83
2022/09/21 06:27:35;;;;;;;25.10;18.37;;;;;;;9.56;100.00;99521.55;4399705;79;21038;-84
2022/09/21 06:33:37;;;;;;;28.62;18.62;;;;;;;9.62;100.00;99522.05;4391705;79;22048;-83
2022/09/21 06:39:38;;;;;;;25.08;17.90;;;;;;;9.61;100.00;99519.11;4400512;79;21026;-84
2022/09/21 06:45:40;;;;;;;29.07;19.55;;;;;;;9.63;100.00;99522.29;4401286;79;21073;-83
2022/09/21 06:51:42;;;;;;;28.67;19.52;;;;;;;9.65;100.00;99530.94;4353918;79;20972;-83
2022/09/21 06:57:43;;;;;;;28.20;17.90;;;;;;;9.68;100.00;99528.86;4394598;79;20991;-83
2022/09/21 07:03:50;;;;;;;34.33;20.40;;;;;;;9.74;100.00;99541.09;4395491;79;21474;-83
2022/09/21 07:09:51;;;;;;;;;;;;;;;9.80;100.00;99550.61;4347793;79;21006;-83
2022/09/21 07:15:54;;;;;;;32.85;19.20;;;;;;;9.84;100.00;99550.09;4371039;79;20138;-83
2022/09/21 07:21:56;;;;;;;27.32;18.40;;;;;;;9.89;100.00;99555.30;4379609;78;21002;-83
2022/09/21 07:27:59;;;;;;;31.48;20.65;;;;;;;9.85;100.00;99550.34;4393655;79;21014;-83
2022/09/21 07:34:01;;;;;;;28.00;19.00;;;;;;;9.84;100.00;99557.73;4379809;79;21063;-83
2022/09/21 07:40:04;;;;;;;27.60;18.85;;;;;;;9.91;100.00;99558.48;4448346;79;21017;-84
2022/09/21 07:46:13;;;;;;;27.98;16.40;;;;;;;10.01;100.00;99565.55;4462278;79;20973;-84
2022/09/21 07:52:14;;;;;;;25.00;16.42;;;;;;;10.08;100.00;99567.67;4387544;78;20988;-84
2022/09/21 08:04:35;;;;;;;25.77;17.80;;;;;;;10.22;100.00;99567.98;4371635;79;21469;-86
2022/09/21 08:11:00;;;;;;;22.00;16.48;;;;;;;10.30;100.00;99575.20;4375577;79;21028;-85
2022/09/21 08:17:03;;;;;;;23.80;15.63;;;;;;;10.32;100.00;99579.14;4371243;79;21359;-85
2022/09/21 08:23:06;;;;;;;28.30;17.65;;;;;;;10.33;100.00;99579.38;4374499;79;21015;-86
2022/09/21 08:29:09;;;;;;;34.92;17.10;;;;;;;10.34;100.00;99578.22;4401985;79;21465;-86
2022/09/21 08:35:10;;;;;;;25.23;16.73;;;;;;;10.37;100.00;99584.91;4370195;79;21024;-85
2022/09/21 08:41:23;;;;;;;23.22;16.20;;;;;;;10.41;100.00;99585.23;4390040;79;21610;-85
2022/09/21 08:47:45;;;;;;;25.55;17.45;;;;;;;10.48;100.00;99593.57;4390604;79;21034;-86
2022/09/21 08:53:55;;;;;;;24.92;16.25;;;;;;;10.47;100.00;99592.56;4382099;79;21108;-86
2022/09/21 08:59:59;;;;;;;26.87;17.73;;;;;;;10.44;100.00;99587.81;4325167;81;21115;-85
2022/09/21 09:06:39;;;;;;;27.35;18.07;;;;;;;10.48;100.00;99590.03;4281793;81;21079;-85
2022/09/21 09:12:56;;;;;;;26.15;17.32;;;;;;;10.64;100.00;99586.09;4288233;81;20985;-85
2022/09/21 09:19:33;;;;;;;27.40;18.27;;;;;;;10.77;100.00;99589.47;4460173;77;21037;-85
2022/09/21 09:25:40;;;;;;;28.57;19.10;;;;;;;10.88;100.00;99585.77;4415807;77;21056;-85
2022/09/21 09:31:44;;;;;;;24.67;16.10;;;;;;;10.96;100.00;99584.74;4439128;78;20972;-84
2022/09/21 09:37:47;;;;;;;21.80;14.90;;;;;;;11.00;100.00;99584.25;4413148;78;21442;-85
2022/09/21 09:44:04;;;;;;;23.80;15.30;;;;;;;10.95;100.00;99591.39;4446897;78;20969;-84
2022/09/21 09:50:31;;;;;;;17.60;12.37;;;;;;;10.89;100.00;99593.41;4441162;79;21961;-85
2022/09/21 09:56:33;;;;;;;18.30;12.88;;;;;;;10.88;100.00;99595.34;4413041;78;21042;-85
2022/09/21 10:02:45;;;;;;;16.48;10.18;;;;;;;10.84;100.00;99589.02;4435487;78;21546;-84
2022/09/21 10:08:46;;;;;;;17.70;11.18;;;;;;;10.83;100.00;99587.45;4431693;78;21000;-85
2022/09/21 10:14:55;;;;;;;14.18;10.43;;;;;;;10.83;100.00;99592.92;4399323;78;21004;-84
2022/09/21 10:21:07;;;;;;;15.83;9.73;;;;;;;10.79;100.00;99591.28;4411132;79;21074;-85
2022/09/21 10:27:21;;;;;;;11.68;8.45;;;;;;;10.86;100.00;99591.40;4397481;78;21440;-85
2022/09/21 10:33:22;;;;;;;11.80;8.18;;;;;;;11.04;100.00;99592.51;4404707;78;21011;-84
2022/09/21 10:39:31;;;;;;;12.20;8.05;;;;;;;11.09;100.00;99591.66;4440150;79;20953;-85
2022/09/21 10:45:36;;;;;;;13.38;8.93;;;;;;;11.15;100.00;99594.09;4424382;78;20980;-85
2022/09/21 10:51:38;;;;;;;13.88;8.90;;;;;;;11.13;100.00;99597.20;4412818;78;20937;-86
2022/09/21 10:57:53;;;;;;;11.38;8.73;;;;;;;11.16;100.00;99589.63;4444517;80;21038;-85
2022/09/21 11:04:01;;;;;;;12.45;7.90;;;;;;;11.18;100.00;99587.89;4367842;80;21925;-85
2022/09/21 11:10:13;;;;;;;10.00;7.62;;;;;;;11.24;100.00;99582.31;4442165;80;21896;-86
2022/09/21 11:16:48;;;;;;;9.48;6.80;;;;;;;11.28;100.00;99583.95;4441537;80;20988;-85
2022/09/21 11:23:34;;;;;;;11.00;7.40;;;;;;;11.34;100.00;99579.75;4420723;79;20981;-85
2022/09/21 11:30:08;;;;;;;9.55;6.90;;;;;;;11.42;100.00;99572.44;4420467;78;21032;-85
2022/09/21 11:36:25;;;;;;;8.55;6.17;;;;;;;11.44;100.00;99569.55;4434594;78;21005;-85
2022/09/21 11:42:42;;;;;;;;;;;;;;;11.61;100.00;99569.05;4452059;78;21491;-85
2022/09/21 11:49:21;;;;;;;8.50;6.12;;;;;;;11.68;100.00;99571.92;4455789;77;20158;-84
2022/09/21 11:55:54;;;;;;;9.08;6.70;;;;;;;11.74;100.00;99566.36;4464378;78;20970;-85
2022/09/21 12:02:25;;;;;;;10.60;6.58;;;;;;;11.86;100.00;99568.88;4445516;77;20995;-85
2022/09/21 12:08:57;;;;;;;9.23;6.12;;;;;;;12.27;100.00;99557.50;4462832;78;20996;-84
2022/09/21 12:15:39;;;;;;;8.90;5.45;;;;;;;12.53;100.00;99546.45;4390851;78;21029;-85
2022/09/21 12:21:47;;;;;;;7.37;5.10;;;;;;;12.59;100.00;99547.11;4439490;78;21432;-85
2022/09/21 12:27:54;;;;;;;8.20;5.50;;;;;;;12.81;100.00;99533.63;4444041;78;21007;-84
2022/09/21 12:34:18;;;;;;;8.53;5.50;;;;;;;12.92;100.00;99544.16;4430035;78;20987;-85
2022/09/21 12:40:42;;;;;;;7.95;5.05;;;;;;;12.92;100.00;99541.41;4382313;79;20968;-84
2022/09/21 12:46:54;;;;;;;6.60;4.72;;;;;;;12.99;100.00;99535.39;4403916;79;21466;-84
2022/09/21 12:52:57;;;;;;;6.55;4.45;;;;;;;13.05;100.00;99529.78;4312421;80;21020;-83
2022/09/21 12:59:39;;;;;;;7.95;5.45;;;;;;;13.11;100.00;99533.77;4383666;78;20953;-84
2022/09/21 13:06:16;;;;;;;10.15;6.08;;;;;;;13.33;100.00;99520.98;4402321;80;21001;-84
2022/09/21 13:12:33;;;;;;;;;;;;;;;13.29;100.00;99528.43;4418162;78;20963;-84
2022/09/21 13:18:38;;;;;;;8.65;4.92;;;;;;;13.08;100.00;99530.97;4429564;78;20727;-85
2022/09/21 13:24:42;;;;;;;8.53;4.30;;;;;;;12.95;100.00;99522.79;4412898;78;21009;-84
2022/09/21 13:31:10;;;;;;;7.10;3.40;;;;;;;13.08;100.00;99515.86;4392864;79;21023;-82
2022/09/21 13:37:27;;;;;;;4.97;3.17;;;;;;;13.10;100.00;99518.45;4435161;77;21024;-84
2022/09/21 13:44:00;;;;;;;6.90;4.37;;;;;;;13.20;100.00;99521.09;4426058;77;21003;-83
2022/09/21 13:50:27;;;;;;;8.28;4.50;;;;;;;13.28;100.00;99513.88;4463977;77;21873;-84
2022/09/21 13:56:32;;;;;;;7.47;4.40;;;;;;;13.41;100.00;99509.68;4445621;77;21024;-84
2022/09/21 14:02:49;;;;;;;5.58;4.15;;;;;;;13.44;100.00;99502.04;4454585;77;20957;-84
2022/09/21 14:09:09;;;;;;;4.80;3.15;;;;;;;13.54;100.00;99493.67;4468593;78;21020;-83
2022/09/21 14:15:21;;;;;;;4.65;3.00;;;;;;;13.67;100.00;99485.31;4441736;77;21014;-84
2022/09/21 14:21:22;;;;;;;8.28;3.75;;;;;;;13.75;100.00;99484.19;4447652;77;20960;-83
2022/09/21 14:27:43;;;;;;;4.28;3.17;;;;;;;13.76;100.00;99486.56;4434542;77;21005;-84
2022/09/21 14:33:54;;;;;;;10.40;3.40;;;;;;;13.75;100.00;99481.44;4467433;77;20976;-84
2022/09/21 14:39:59;;;;;;;12.40;4.67;;;;;;;13.69;100.00;99484.33;4464136;78;20929;-84
2022/09/21 15:00:50;;;;;;;5.37;1.70;;;;;;;12.23;100.00;99503.92;4466958;78;22141;-85
2022/09/21 15:14:17;;;;;;;2.87;1.60;;;;;;;11.75;100.00;99495.81;4460981;78;21041;-85
2022/09/21 15:20:22;;;;;;;4.03;1.67;;;;;;;11.65;100.00;99517.04;4458068;78;21009;-85
2022/09/21 15:33:22;;;;;;;;;;;;;;;11.36;100.00;99521.25;4456783;78;21014;-85
2022/09/21 15:39:30;;;;;;;8.33;2.77;;;;;;;11.21;100.00;99527.67;4406483;78;20136;-85
2022/09/21 15:45:59;;;;;;;11.18;4.45;;;;;;;11.25;100.00;99529.88;4413984;79;21100;-85
2022/09/21 15:52:08;;;;;;;19.62;7.00;;;;;;;11.13;100.00;99539.06;4442588;79;21434;-84
2022/09/21 15:58:20;;;;;;;10.72;4.62;;;;;;;11.06;100.00;99541.69;4375418;79;21055;-85
2022/09/21 16:04:26;;;;;;;9.45;4.08;;;;;;;11.00;100.00;99543.72;4407582;79;20998;-85
2022/09/21 16:10:39;;;;;;;8.37;3.90;;;;;;;10.90;100.00;99552.53;4409346;79;21037;-85
2022/09/21 16:17:12;;;;;;;5.10;3.10;;;;;;;10.65;100.00;99558.11;4402064;79;21660;-85
2022/09/21 16:23:19;;;;;;;8.33;3.80;;;;;;;10.69;100.00;99568.00;4403461;78;21545;-85
2022/09/21 16:29:25;;;;;;;10.17;4.10;;;;;;;10.66;100.00;99581.62;4440773;79;20965;-84
2022/09/21 16:35:27;;;;;;;9.60;5.17;;;;;;;10.61;100.00;99588.18;4413213;78;22583;-84
2022/09/21 16:41:41;;;;;;;11.63;5.83;;;;;;;10.49;100.00;99599.84;4445950;78;21005;-85
2022/09/21 16:48:12;;;;;;;8.45;5.37;;;;;;;10.50;100.00;99596.75;4436846;78;21037;-85
2022/09/21 16:54:16;;;;;;;10.85;6.72;;;;;;;10.52;100.00;99602.63;4410573;78;21000;-86
2022/09/21 17:00:19;;;;;;;11.78;5.80;;;;;;;10.41;100.00;99596.73;4469507;79;21051;-85
2022/09/21 17:06:21;;;;;;;11.00;7.10;;;;;;;10.43;100.00;99605.39;4440499;78;20973;-85
2022/09/21 17:12:24;;;;;;;15.20;7.60;;;;;;;10.30;100.00;99603.92;4389133;79;20960;-85
2022/09/21 17:18:45;;;;;;;15.68;9.20;;;;;;;10.27;100.00;99609.55;4467674;79;20976;-84
2022/09/21 17:24:53;;;;;;;12.73;8.20;;;;;;;10.25;100.00;99609.67;4457085;78;20996;-85
2022/09/21 17:30:54;;;;;;;16.52;9.80;;;;;;;10.29;100.00;99619.55;4456309;79;20979;-84
2022/09/21 17:36:55;;;;;;;17.02;11.40;;;;;;;10.31;100.00;99629.56;4461187;78;21092;-84
2022/09/21 17:43:10;;;;;;;12.82;8.03;;;;;;;10.26;100.00;99632.58;4439679;77;20952;-84
2022/09/21 17:49:14;;;;;;;16.12;9.08;;;;;;;10.23;100.00;99627.02;4471505;78;20976;-84
2022/09/21 17:55:16;;;;;;;13.48;8.80;;;;;;;10.21;100.00;99636.95;4391627;77;21526;-85
2022/09/21 18:01:38;;;;;;;14.50;8.05;;;;;;;10.19;100.00;99633.80;4419359;77;21645;-84
2022/09/21 18:07:41;;;;;;;11.33;7.90;;;;;;;10.21;100.00;99634.22;4458089;77;21020;-85
2022/09/21 18:14:24;;;;;;;14.20;9.28;;;;;;;10.22;100.00;99648.70;4396587;77;22006;-84
2022/09/21 18:20:56;;;;;;;11.08;7.65;;;;;;;10.21;100.00;99649.27;4470188;77;21428;-84
2022/09/21 18:26:59;;;;;;;11.00;7.78;;;;;;;10.19;100.00;99648.84;4464903;77;20980;-84
2022/09/21 18:33:43;;;;;;;12.68;8.08;;;;;;;10.20;100.00;99653.16;4441586;77;21568;-84
2022/09/21 18:40:13;;;;;;;10.80;6.95;;;;;;;10.18;100.00;99647.84;4514082;77;20945;-84
2022/09/21 18:46:40;;;;;;;11.48;7.58;;;;;;;10.14;100.00;99658.69;4455085;78;20967;-84
2022/09/21 18:53:26;;;;;;;14.38;7.47;;;;;;;10.10;100.00;99648.81;4415081;78;21105;-84
2022/09/21 18:59:28;;;;;;;13.72;8.53;;;;;;;10.03;100.00;99649.41;4460195;78;21638;-84
2022/09/21 19:05:40;;;;;;;13.88;8.28;;;;;;;10.02;100.00;99650.57;4470696;78;20991;-84
2022/09/21 19:11:56;;;;;;;13.30;8.68;;;;;;;9.99;100.00;99651.25;4384862;78;21058;-84
2022/09/21 19:18:25;;;;;;;17.85;10.40;;;;;;;9.97;100.00;99655.50;4444950;77;21033;-85
2022/09/21 19:25:11;;;;;;;18.60;11.45;;;;;;;9.96;100.00;99652.56;4455344;78;21356;-84
2022/09/21 19:31:19;;;;;;;17.57;13.08;;;;;;;9.86;100.00;99640.78;4367282;78;20987;-84
2022/09/21 19:37:22;;;;;;;22.05;14.47;;;;;;;9.81;100.00;99639.67;4463459;78;21004;-83
2022/09/21 19:43:49;;;;;;;19.52;14.53;;;;;;;9.81;100.00;99641.84;4469076;77;20954;-83
2022/09/21 19:49:55;;;;;;;18.65;13.50;;;;;;;9.82;100.00;99635.81;4372068;77;21037;-83
2022/09/21 20:02:35;;;;;;;23.32;14.35;;;;;;;9.77;100.00;99629.24;4465795;77;21409;-83
2022/09/21 20:09:07;;;;;;;27.40;17.52;;;;;;;9.79;100.00;99630.46;4471605;78;21008;-83
2022/09/21 20:15:18;;;;;;;22.67;15.90;;;;;;;9.75;100.00;99634.27;4474957;79;21004;-83
2022/09/21 20:21:21;;;;;;;25.25;17.52;;;;;;;9.78;100.00;99635.72;4475057;79;21460;-83
2022/09/21 20:27:45;;;;;;;26.37;17.62;;;;;;;9.74;100.00;99634.05;4461652;78;20968;-83
2022/09/21 20:33:48;;;;;;;28.05;18.67;;;;;;;9.72;100.00;99631.67;4436192;77;20993;-83
2022/09/21 20:39:49;;;;;;;28.42;18.55;;;;;;;9.75;100.00;99630.16;4462306;77;21084;-84
2022/09/21 20:45:52;;;;;;;28.17;19.45;;;;;;;9.77;100.00;99629.24;4451290;78;20934;-84
2022/09/21 20:51:54;;;;;;;28.17;19.70;;;;;;;9.73;100.00;99621.51;4464951;77;20954;-83
2022/09/21 20:57:55;;;;;;;27.65;19.32;;;;;;;9.76;100.00;99630.37;4478673;79;21032;-83
2022/09/21 21:04:02;;;;;;;32.08;20.57;;;;;;;9.72;100.00;99634.97;4556619;77;20953;-83
2022/09/21 21:10:03;;;;;;;31.55;21.30;;;;;;;9.74;100.00;99628.58;4460497;78;20980;-84
2022/09/21 21:16:06;;;;;;;30.10;19.77;;;;;;;9.76;100.00;99629.80;4449294;77;20942;-83
2022/09/21 21:22:11;;;;;;;30.12;20.70;;;;;;;9.74;100.00;99622.52;4444350;77;21420;-84
2022/09/21 21:28:14;;;;;;;35.03;21.55;;;;;;;9.71;100.00;99622.45;4470486;77;21015;-84
2022/09/21 21:34:24;;;;;;;30.40;20.60;;;;;;;9.69;100.00;99624.18;4406198;77;20953;-84
2022/09/21 21:40:26;;;;;;;33.42;20.50;;;;;;;9.66;100.00;99619.98;4367754;77;20955;-83
2022/09/21 21:46:28;;;;;;;37.25;22.20;;;;;;;9.68;100.00;99621.80;4297884;79;21038;-83
2022/09/21 21:52:30;;;;;;;34.20;20.97;;;;;;;9.61;100.00;99611.48;4264941;81;21037;-83
2022/09/21 21:58:33;;;;;;;35.15;22.25;;;;;;;9.64;100.00;99609.41;4361950;80;20967;-82
2022/09/21 22:04:34;;;;;;;32.73;20.97;;;;;;;9.66;100.00;99607.13;4304278;79;20947;-83
2022/09/21 22:10:35;;;;;;;34.67;23.52;;;;;;;9.62;100.00;99608.16;4307379;79;20975;-83
2022/09/21 22:16:37;;;;;;;31.55;21.87;;;;;;;9.59;100.00;99608.30;4306671;80;20992;-82
2022/09/21 22:22:38;;;;;;;33.83;23.20;;;;;;;9.50;100.00;99596.76;4242355;80;20950;-82
2022/09/21 22:28:43;;;;;;;35.35;23.25;;;;;;;9.51;100.00;99589.57;4368998;79;21872;-82
2022/09/21 22:34:46;;;;;;;34.67;22.75;;;;;;;9.52;100.00;99590.37;4298357;79;21087;-84
2022/09/21 22:40:47;;;;;;;33.80;23.32;;;;;;;9.49;100.00;99589.13;4303301;80;21047;-83
2022/09/21 22:46:48;;;;;;;41.80;24.95;;;;;;;9.52;100.00;99587.64;4322729;80;21626;-83
2022/09/21 22:52:50;;;;;;;40.40;25.48;;;;;;;9.50;100.00;99586.63;4323411;79;20972;-83
2022/09/21 22:58:54;;;;;;;38.92;24.50;;;;;;;9.46;100.00;99579.47;4321647;80;21055;-83
2022/09/21 23:04:56;;;;;;;41.35;26.33;;;;;;;9.48;100.00;99577.98;4323777;79;21044;-83
2022/09/21 23:11:08;;;;;;;39.40;25.92;;;;;;;9.48;100.00;99575.25;4331462;81;21063;-83
2022/09/21 23:17:12;;;;;;;37.10;26.10;;;;;;;9.43;100.00;99572.78;4323221;81;21074;-83
2022/09/21 23:23:15;;;;;;;38.25;24.47;;;;;;;9.46;100.00;99576.17;4319844;80;21008;-84
2022/09/21 23:29:16;;;;;;;35.08;23.65;;;;;;;9.50;100.00;99570.80;4309979;80;21174;-83
2022/09/21 23:35:18;;;;;;;39.65;25.23;;;;;;;9.49;100.00;99575.46;4318190;80;21880;-84
2022/09/21 23:41:29;;;;;;;38.00;25.17;;;;;;;9.49;100.00;99567.83;4391281;78;21196;-84
2022/09/21 23:47:30;;;;;;;36.85;25.15;;;;;;;9.48;100.00;99569.78;4445637;77;20988;-83
2022/09/21 23:53:32;;;;;;;36.00;24.05;;;;;;;9.46;100.00;99567.97;4452091;77;21055;-83
2022/09/21 23:59:36;;;;;;;35.78;23.73;;;;;;;9.45;100.00;99563.66;4441977;78;21937;-83
